This is the latest recevied weather packets stored in our database for station/object VK3BYD-3. If no packets are shown the sender has not sent any weather packets the latest 10 day(s).
| Time | Temp. | Humidity | Pressure | Rain* | Wind** | Luminosity | Snow |
|---|---|---|---|---|---|---|---|
| 1778051077 | 12.78° C | 85% | 1018.6 hPa | 0 mm | - | - | - |
| 1778050176 | 13.33° C | 84% | 1018.6 hPa | 0 mm | - | - | - |
| 1778049274 | 13.33° C | 82% | 1018.7 hPa | 0 mm | - | - | - |
| 1778048372 | 13.33° C | 81% | 1018.7 hPa | 0 mm | - | - | - |
| 1778047469 | 13.89° C | 79% | 1018.7 hPa | 0 mm | - | - | - |
| 1778046569 | 14.44° C | 79% | 1018.7 hPa | 0 mm | - | - | - |
| 1778045670 | 14.44° C | 79% | 1018.9 hPa | 0 mm | - | - | - |
| 1778044770 | 14.44° C | 79% | 1018.8 hPa | 0 mm | - | - | - |
| 1778043870 | 14.44° C | 80% | 1018.9 hPa | 0 mm | - | - | - |
| 1778042970 | 15° C | 78% | 1018.9 hPa | 0 mm | - | - | - |
| 1778042070 | 15.56° C | 76% | 1018.9 hPa | 0 mm | - | - | - |
| 1778041170 | 15.56° C | 77% | 1019.1 hPa | 0 mm | - | - | - |
| 1778040269 | 15.56° C | 81% | 1019.3 hPa | 0 mm | - | - | - |
| 1778039368 | 14.44° C | 83% | 1019.4 hPa | 0 mm | - | - | - |
| 1778038465 | 14.44° C | 84% | 1019.7 hPa | 0 mm | - | - | - |
| 1778037566 | 15° C | 83% | 1019.9 hPa | 0 mm | - | - | - |
| 1778036663 | 15° C | 86% | 1020.2 hPa | 0 mm | - | - | - |
| 1778035756 | 13.33° C | 92% | 1020.2 hPa | 0 mm | - | - | - |
| 1778034856 | 12.22° C | 96% | 1020.4 hPa | 0 mm | - | - | - |
| 1778033954 | 11.67° C | 96% | 1020.8 hPa | 0 mm | - | - | - |
| 1778033052 | 11.11° C | 97% | 1021.2 hPa | 0 mm | - | - | - |
| 1778032149 | 10.56° C | 97% | 1021.3 hPa | 0 mm | - | - | - |
| 1778031248 | 10.56° C | 97% | 1021.5 hPa | 0 mm | - | - | - |
| 1778030346 | 10° C | 97% | 1021.7 hPa | 0 mm | - | - | - |
| 1778029444 | 10° C | 97% | 1021.9 hPa | 0 mm | - | - | - |
* Rain latest hour (hover to see other rain measurements)
** Current wind speed in m/s (hover to see current wind gust speed)